Time;durP1;ratioP1;P1;durP2;ratioP2;P2;SDS_P1;SDS_P2;PMS_P1;PMS_P2;Temp;Humidity;BMP_temperature;BMP_pressure;BME280_temperature;BME280_humidity;BME280_pressure;Samples;Min_cycle;Max_cycle;Signal;HPM_P1;HPM_P2
2023/09/28 00:00:58;;;;;;;7.00;4.75;;;18.80;99.90;;;;;;4980424;28;20428;-35
2023/09/28 00:03:24;;;;;;;6.95;4.65;;;18.80;99.90;;;;;;4983543;28;20086;-35
2023/09/28 00:05:50;;;;;;;9.45;4.35;;;18.80;99.90;;;;;;4987053;28;20062;-35
2023/09/28 00:08:16;;;;;;;5.80;4.07;;;18.80;99.90;;;;;;4985638;28;20448;-35
2023/09/28 00:10:42;;;;;;;7.63;4.45;;;18.80;99.90;;;;;;4986431;28;20050;-35
2023/09/28 00:13:08;;;;;;;8.90;4.05;;;18.80;99.90;;;;;;4986468;28;20066;-35
2023/09/28 00:15:34;;;;;;;6.45;3.90;;;18.80;99.90;;;;;;4985689;28;20046;-35
2023/09/28 00:18:01;;;;;;;7.00;4.47;;;18.80;99.90;;;;;;4985178;28;20058;-35
2023/09/28 00:20:28;;;;;;;7.78;3.95;;;18.80;99.90;;;;;;4985189;28;20058;-35
2023/09/28 00:22:56;;;;;;;5.93;4.50;;;18.80;99.90;;;;;;4982058;28;20054;-35
2023/09/28 00:25:23;;;;;;;5.60;3.80;;;18.80;99.90;;;;;;4984575;28;20097;-35
2023/09/28 00:27:52;;;;;;;7.75;4.00;;;18.80;99.90;;;;;;4983797;28;20046;-35
2023/09/28 00:30:21;;;;;;;5.40;3.85;;;18.70;99.90;;;;;;4987722;28;20678;-35
2023/09/28 00:32:51;;;;;;;8.20;4.45;;;18.70;99.90;;;;;;4986339;28;20144;-35
2023/09/28 00:35:18;;;;;;;9.38;4.35;;;18.70;99.90;;;;;;4985296;28;20055;-35
2023/09/28 00:37:44;;;;;;;7.05;4.35;;;18.70;99.90;;;;;;4984583;28;20054;-33
2023/09/28 00:40:31;;;;;;;6.63;4.80;;;18.70;99.90;;;;;;4986816;28;20047;-34
2023/09/28 00:42:58;;;;;;;6.38;4.57;;;18.70;99.90;;;;;;4983789;28;20059;-34
2023/09/28 00:45:25;;;;;;;6.40;4.38;;;18.60;99.90;;;;;;4984004;28;20061;-34
2023/09/28 00:47:55;;;;;;;7.30;4.72;;;18.60;99.90;;;;;;4985143;28;20058;-34
2023/09/28 00:50:21;;;;;;;5.63;4.32;;;18.50;99.90;;;;;;4987254;28;20050;-35
2023/09/28 00:52:57;;;;;;;6.50;4.35;;;18.50;99.90;;;;;;4987126;28;20089;-35
2023/09/28 00:55:24;;;;;;;7.03;4.45;;;18.40;99.90;;;;;;4985335;28;20104;-35
2023/09/28 00:57:51;;;;;;;6.25;4.40;;;18.40;99.90;;;;;;4985740;28;20050;-35
2023/09/28 01:00:26;;;;;;;6.68;4.38;;;18.40;99.90;;;;;;4985528;28;20552;-35
2023/09/28 01:02:54;;;;;;;6.80;3.95;;;18.40;99.90;;;;;;4985929;28;20073;-35
2023/09/28 01:05:20;;;;;;;6.13;4.15;;;18.40;99.90;;;;;;4983130;28;20161;-35
2023/09/28 01:07:47;;;;;;;7.28;4.22;;;18.40;99.90;;;;;;4984813;28;20050;-35
2023/09/28 01:10:22;;;;;;;7.25;4.38;;;18.30;99.90;;;;;;4983606;28;20142;-34
2023/09/28 01:12:49;;;;;;;6.95;4.10;;;18.30;99.90;;;;;;4984401;28;20054;-34
2023/09/28 01:15:14;;;;;;;7.50;4.20;;;18.20;99.90;;;;;;4986690;28;20496;-34
2023/09/28 01:17:40;;;;;;;5.45;3.75;;;18.20;99.90;;;;;;4986406;28;20136;-35
2023/09/28 01:20:16;;;;;;;6.22;3.97;;;18.20;99.90;;;;;;4984459;28;20058;-35
2023/09/28 01:22:42;;;;;;;6.18;4.32;;;18.10;99.90;;;;;;4982062;28;20085;-34
2023/09/28 01:25:08;;;;;;;7.30;5.00;;;18.10;99.90;;;;;;4983830;28;20567;-35
2023/09/28 01:27:34;;;;;;;7.15;4.47;;;18.00;99.90;;;;;;4981203;28;20160;-35
2023/09/28 01:30:00;;;;;;;8.00;4.60;;;17.90;99.90;;;;;;4987465;28;20125;-35
2023/09/28 01:32:26;;;;;;;8.32;4.93;;;17.90;99.90;;;;;;4977205;28;20065;-34
2023/09/28 01:34:51;;;;;;;6.78;4.18;;;17.80;99.90;;;;;;4984765;28;20086;-34
2023/09/28 01:37:20;;;;;;;6.60;4.75;;;17.70;99.90;;;;;;4980633;28;20057;-34
2023/09/28 01:39:46;;;;;;;6.88;3.88;;;17.70;99.90;;;;;;4975837;28;20504;-35
2023/09/28 01:42:12;;;;;;;6.32;4.28;;;17.60;99.90;;;;;;4979897;28;20101;-34
2023/09/28 01:44:37;;;;;;;6.10;4.80;;;17.60;99.90;;;;;;4986587;28;20816;-35
2023/09/28 01:47:03;;;;;;;7.75;4.70;;;17.50;99.90;;;;;;4982400;28;20054;-34
2023/09/28 01:49:29;;;;;;;6.82;3.90;;;17.50;99.90;;;;;;4983574;28;20053;-34
2023/09/28 01:51:55;;;;;;;7.93;4.18;;;17.50;99.90;;;;;;4988511;28;20546;-34
2023/09/28 01:54:21;;;;;;;7.63;4.10;;;17.40;99.90;;;;;;4982588;28;20497;-34
2023/09/28 01:56:47;;;;;;;5.95;3.97;;;17.40;99.90;;;;;;4987746;28;20524;-34
2023/09/28 01:59:14;;;;;;;6.88;4.60;;;17.40;99.90;;;;;;4981656;28;20047;-35
2023/09/28 02:01:40;;;;;;;5.00;3.63;;;17.40;99.90;;;;;;4983269;28;20145;-34
2023/09/28 02:04:06;;;;;;;8.43;3.85;;;17.40;99.90;;;;;;4981350;28;20153;-34
2023/09/28 02:06:31;;;;;;;7.00;4.38;;;17.30;99.90;;;;;;4987370;28;20081;-34
2023/09/28 02:08:57;;;;;;;6.15;4.40;;;17.30;99.90;;;;;;4985410;28;20607;-35
2023/09/28 02:11:23;;;;;;;9.63;4.47;;;17.30;99.90;;;;;;4981198;28;20142;-34
2023/09/28 02:13:49;;;;;;;6.50;3.90;;;17.30;99.90;;;;;;4984947;28;20070;-34
2023/09/28 02:16:14;;;;;;;7.63;4.40;;;17.20;99.90;;;;;;4984445;28;20049;-34
2023/09/28 02:18:42;;;;;;;6.53;4.20;;;17.20;99.90;;;;;;4982997;28;20081;-34
2023/09/28 02:21:13;;;;;;;5.10;3.88;;;17.20;99.90;;;;;;4985308;28;20459;-34
2023/09/28 02:23:38;;;;;;;8.23;4.70;;;17.10;99.90;;;;;;4987374;28;20485;-34
2023/09/28 02:26:05;;;;;;;8.68;4.75;;;17.10;99.90;;;;;;4986270;28;20060;-34
2023/09/28 02:28:31;;;;;;;7.45;4.10;;;17.10;99.90;;;;;;4976992;28;20169;-34
2023/09/28 02:31:06;;;;;;;7.45;4.70;;;17.00;99.90;;;;;;4982049;28;20054;-34
2023/09/28 02:33:32;;;;;;;8.23;4.93;;;17.00;99.90;;;;;;4984754;28;20061;-34
2023/09/28 02:35:58;;;;;;;6.93;4.78;;;16.90;99.90;;;;;;4987230;28;20046;-34
2023/09/28 02:38:24;;;;;;;7.80;5.28;;;16.80;99.90;;;;;;4981321;28;20053;-34
2023/09/28 02:40:50;;;;;;;8.75;6.03;;;16.80;99.90;;;;;;4981342;28;20124;-35
2023/09/28 02:43:15;;;;;;;8.18;5.80;;;16.70;99.90;;;;;;4985840;28;20120;-34
2023/09/28 02:45:42;;;;;;;9.65;5.28;;;16.60;99.90;;;;;;4982882;28;20117;-34
2023/09/28 02:48:08;;;;;;;9.05;6.10;;;16.50;99.90;;;;;;4983130;28;20050;-34
2023/09/28 02:50:34;;;;;;;10.52;7.25;;;16.50;99.90;;;;;;4977009;28;20733;-34
2023/09/28 02:53:00;;;;;;;9.10;6.88;;;16.50;99.90;;;;;;4983763;28;20512;-34
2023/09/28 02:55:26;;;;;;;10.75;7.30;;;16.40;99.90;;;;;;4983720;28;20097;-35
2023/09/28 02:57:51;;;;;;;9.68;6.90;;;16.40;99.90;;;;;;4979306;28;20051;-34
2023/09/28 03:02:53;;;;;;;15.80;7.57;;;16.30;99.90;;;;;;4981199;28;20141;-34
2023/09/28 03:05:22;;;;;;;13.35;7.72;;;16.30;99.90;;;;;;4984956;28;20052;-34
2023/09/28 03:07:49;;;;;;;9.00;6.82;;;16.30;99.90;;;;;;4982643;28;20046;-34
2023/09/28 03:10:14;;;;;;;12.93;7.68;;;16.20;99.90;;;;;;4986367;28;20046;-34
2023/09/28 03:12:42;;;;;;;13.23;7.22;;;16.20;99.90;;;;;;4982120;28;20046;-34
2023/09/28 03:15:11;;;;;;;10.57;7.30;;;16.20;99.90;;;;;;4986493;28;20061;-34
2023/09/28 03:17:38;;;;;;;10.35;6.75;;;16.20;99.90;;;;;;4982222;28;20443;-34
2023/09/28 03:20:14;;;;;;;13.68;6.78;;;16.20;99.90;;;;;;4983364;28;20058;-34
2023/09/28 03:22:45;;;;;;;11.25;6.35;;;16.20;99.90;;;;;;4983668;28;20062;-34
2023/09/28 03:25:17;;;;;;;8.95;5.80;;;16.20;99.90;;;;;;4984647;28;20046;-34
2023/09/28 03:27:49;;;;;;;8.60;5.60;;;16.20;99.90;;;;;;4983257;28;20081;-34
2023/09/28 03:30:16;;;;;;;9.55;5.00;;;16.20;99.90;;;;;;4977111;28;20081;-34
2023/09/28 03:32:42;;;;;;;8.02;5.43;;;16.20;99.90;;;;;;4982657;28;20059;-34
2023/09/28 03:35:11;;;;;;;7.32;4.93;;;16.20;99.90;;;;;;4984745;28;20065;-34
2023/09/28 03:37:37;;;;;;;9.40;4.88;;;16.20;99.90;;;;;;4982057;28;20061;-34
2023/09/28 03:40:10;;;;;;;9.38;4.93;;;16.20;99.90;;;;;;4983116;28;20457;-34
2023/09/28 03:42:41;;;;;;;9.38;4.25;;;16.20;99.90;;;;;;4980740;28;20042;-34
2023/09/28 03:45:09;;;;;;;7.00;4.53;;;16.20;99.90;;;;;;4979174;28;20042;-34
2023/09/28 03:47:39;;;;;;;7.80;3.85;;;16.20;99.90;;;;;;4979810;28;20563;-34
2023/09/28 03:50:07;;;;;;;6.30;4.32;;;16.20;99.90;;;;;;4985026;28;20046;-35
2023/09/28 03:52:34;;;;;;;7.35;4.38;;;16.20;99.90;;;;;;4980686;28;20078;-34
2023/09/28 03:55:00;;;;;;;6.15;4.25;;;16.20;99.90;;;;;;4983934;28;20042;-34
2023/09/28 03:57:26;;;;;;;6.53;3.80;;;16.20;99.90;;;;;;4984328;28;20065;-34
2023/09/28 03:59:51;;;;;;;7.47;3.85;;;16.20;99.90;;;;;;4978400;28;20054;-34
2023/09/28 04:02:17;;;;;;;5.53;4.03;;;16.20;99.90;;;;;;4980810;28;20127;-34
2023/09/28 04:04:43;;;;;;;6.18;4.20;;;16.20;99.90;;;;;;4981892;28;20058;-34
2023/09/28 04:07:09;;;;;;;6.53;4.05;;;16.10;99.90;;;;;;4983066;28;20050;-34
2023/09/28 04:09:35;;;;;;;5.60;3.83;;;16.10;99.90;;;;;;4982001;28;20046;-34
2023/09/28 04:12:01;;;;;;;6.65;4.47;;;16.10;99.90;;;;;;4981417;28;20051;-34
2023/09/28 04:14:27;;;;;;;6.35;4.72;;;16.10;99.90;;;;;;4984214;28;20054;-34
2023/09/28 04:16:54;;;;;;;7.18;3.95;;;16.10;99.90;;;;;;4957474;28;20054;-34
2023/09/28 04:19:19;;;;;;;7.22;4.05;;;16.10;99.90;;;;;;4982301;28;20097;-34
2023/09/28 04:21:45;;;;;;;7.10;3.78;;;16.00;99.90;;;;;;4980529;28;20054;-34
2023/09/28 04:24:11;;;;;;;7.88;4.07;;;16.00;99.90;;;;;;4983491;28;20173;-34
2023/09/28 04:26:37;;;;;;;6.60;4.50;;;16.00;99.90;;;;;;4982622;28;20392;-34
2023/09/28 04:29:03;;;;;;;7.03;4.75;;;15.90;99.90;;;;;;4982213;28;20056;-34
2023/09/28 04:31:29;;;;;;;7.45;5.13;;;15.90;99.90;;;;;;4985544;28;20396;-34
2023/09/28 04:33:57;;;;;;;6.63;4.63;;;15.90;99.90;;;;;;4985879;28;20159;-34
2023/09/28 04:36:24;;;;;;;10.45;4.60;;;15.90;99.90;;;;;;4984867;28;20138;-35
2023/09/28 04:38:50;;;;;;;9.07;4.88;;;15.80;99.90;;;;;;4984959;28;20054;-34
2023/09/28 04:41:17;;;;;;;6.50;4.45;;;15.80;99.90;;;;;;4984497;28;20069;-34
2023/09/28 04:43:43;;;;;;;6.80;4.47;;;15.70;99.90;;;;;;4986650;28;20175;-35
2023/09/28 04:46:09;;;;;;;8.32;4.90;;;15.70;99.90;;;;;;4989015;28;20057;-34
2023/09/28 04:48:35;;;;;;;5.57;3.92;;;15.70;99.90;;;;;;4987458;28;20145;-34
2023/09/28 04:51:00;;;;;;;7.80;4.30;;;15.70;99.90;;;;;;4986656;28;20050;-34
2023/09/28 04:53:26;;;;;;;7.28;5.13;;;15.70;99.90;;;;;;4985291;28;20054;-34
2023/09/28 04:55:52;;;;;;;7.95;4.93;;;15.60;99.90;;;;;;4982224;28;20145;-34
2023/09/28 04:58:18;;;;;;;11.80;5.80;;;15.60;99.90;;;;;;4982705;28;20085;-34
2023/09/28 05:00:44;;;;;;;11.95;5.15;;;15.70;99.90;;;;;;4984104;28;20054;-35
2023/09/28 05:03:11;;;;;;;9.05;5.28;;;15.60;99.90;;;;;;4985888;28;20548;-34
2023/09/28 05:05:37;;;;;;;7.63;4.40;;;15.60;99.90;;;;;;4985390;28;20132;-34
2023/09/28 05:08:02;;;;;;;5.93;3.55;;;15.70;99.90;;;;;;4970256;28;20062;-34
2023/09/28 05:10:28;;;;;;;8.63;3.42;;;15.60;99.90;;;;;;4982149;28;20512;-34
2023/09/28 05:12:54;;;;;;;5.53;3.20;;;15.70;99.90;;;;;;4986788;28;20108;-34
2023/09/28 05:15:20;;;;;;;6.55;3.28;;;15.70;99.90;;;;;;4964224;28;20105;-34
2023/09/28 05:17:47;;;;;;;6.82;3.20;;;15.80;99.90;;;;;;4985736;28;20137;-34
2023/09/28 05:20:13;;;;;;;8.25;3.63;;;15.80;99.90;;;;;;4986220;28;20076;-34
2023/09/28 05:22:38;;;;;;;6.03;3.33;;;15.90;99.90;;;;;;4965565;28;20050;-34
2023/09/28 05:25:06;;;;;;;6.65;3.47;;;15.80;99.90;;;;;;4985226;28;20448;-34
2023/09/28 05:27:33;;;;;;;8.30;3.40;;;15.80;99.90;;;;;;4986190;28;20137;-34
2023/09/28 05:29:59;;;;;;;5.93;3.25;;;15.80;99.90;;;;;;4981187;28;20090;-34
2023/09/28 05:32:24;;;;;;;6.25;3.95;;;15.80;99.90;;;;;;4983497;28;20046;-34
2023/09/28 05:34:50;;;;;;;7.43;3.42;;;15.80;99.90;;;;;;4982696;28;20058;-34
2023/09/28 05:37:16;;;;;;;7.07;3.60;;;15.80;99.90;;;;;;4982195;28;20412;-34
2023/09/28 05:39:41;;;;;;;7.15;3.75;;;15.80;99.90;;;;;;4980980;28;20057;-34
2023/09/28 05:42:07;;;;;;;8.25;3.80;;;15.90;99.90;;;;;;4965792;28;20108;-34
2023/09/28 05:44:34;;;;;;;7.05;3.10;;;15.80;99.90;;;;;;4983928;28;20109;-34
2023/09/28 05:46:59;;;;;;;10.23;3.60;;;15.80;99.90;;;;;;4986474;28;20054;-34
2023/09/28 05:49:26;;;;;;;5.32;3.10;;;15.80;99.90;;;;;;4985620;28;20046;-34
2023/09/28 05:51:52;;;;;;;10.25;3.92;;;15.70;99.90;;;;;;4979856;28;20412;-34
2023/09/28 05:54:18;;;;;;;10.00;4.10;;;15.70;99.90;;;;;;4983299;28;20056;-34
2023/09/28 05:56:44;;;;;;;6.88;3.33;;;15.70;99.90;;;;;;4984273;28;21316;-34
2023/09/28 05:59:10;;;;;;;5.53;3.17;;;15.60;99.90;;;;;;4986090;28;20046;-34
2023/09/28 06:01:37;;;;;;;9.05;3.38;;;15.60;99.90;;;;;;4980400;28;20035;-34
2023/09/28 06:04:05;;;;;;;5.35;3.00;;;15.60;99.90;;;;;;4982862;28;20062;-34
2023/09/28 06:06:31;;;;;;;11.05;4.25;;;15.60;99.90;;;;;;4984859;28;20436;-34
2023/09/28 06:08:57;;;;;;;8.75;2.80;;;15.60;99.90;;;;;;4986077;28;20109;-34
2023/09/28 06:11:22;;;;;;;9.60;3.00;;;15.60;99.90;;;;;;4983011;28;20092;-34
2023/09/28 06:13:48;;;;;;;14.20;3.53;;;15.60;99.90;;;;;;4986515;28;20050;-34
2023/09/28 06:16:15;;;;;;;9.40;3.50;;;15.60;99.90;;;;;;4992868;28;20145;-34
2023/09/28 06:18:42;;;;;;;5.60;2.50;;;15.60;99.90;;;;;;4977529;28;20090;-34
2023/09/28 06:21:08;;;;;;;8.80;4.20;;;15.60;99.90;;;;;;4980225;28;20511;-34
2023/09/28 06:23:34;;;;;;;8.00;2.92;;;15.60;99.90;;;;;;4978974;28;20070;-34
2023/09/28 06:26:01;;;;;;;10.05;3.13;;;15.60;99.90;;;;;;4983627;28;20414;-34
2023/09/28 06:28:27;;;;;;;10.20;3.00;;;15.60;99.90;;;;;;4981840;28;20339;-34
2023/09/28 06:30:55;;;;;;;10.55;2.97;;;15.60;99.90;;;;;;4983940;28;20052;-35
2023/09/28 06:33:23;;;;;;;10.65;3.60;;;15.60;99.90;;;;;;4982693;28;20457;-34
2023/09/28 06:35:49;;;;;;;7.53;3.10;;;15.60;99.90;;;;;;4985885;28;20050;-34
2023/09/28 06:38:14;;;;;;;11.50;2.58;;;15.60;99.90;;;;;;4982287;28;21202;-34
2023/09/28 06:40:48;;;;;;;8.75;3.00;;;15.60;99.90;;;;;;4980998;28;20104;-34
2023/09/28 06:43:15;;;;;;;11.43;2.80;;;15.60;99.90;;;;;;4985092;28;20072;-34
2023/09/28 06:45:41;;;;;;;10.07;2.25;;;15.70;99.90;;;;;;4987217;28;20220;-34
2023/09/28 06:48:07;;;;;;;11.82;2.55;;;15.70;99.90;;;;;;4984564;28;20546;-34
2023/09/28 06:50:35;;;;;;;11.18;2.58;;;15.80;99.90;;;;;;4984430;28;20050;-34
2023/09/28 06:53:02;;;;;;;8.77;2.33;;;15.90;99.90;;;;;;4985728;28;20054;-34
2023/09/28 06:55:28;;;;;;;8.13;2.63;;;15.90;99.90;;;;;;4986328;28;20084;-34
2023/09/28 06:57:54;;;;;;;12.30;2.75;;;15.90;99.90;;;;;;4982794;28;20046;-34
2023/09/28 07:00:20;;;;;;;14.93;2.70;;;16.00;99.90;;;;;;5003527;28;20117;-34
2023/09/28 07:02:49;;;;;;;11.43;2.28;;;16.00;99.90;;;;;;4978952;28;20058;-34
2023/09/28 07:05:16;;;;;;;8.82;2.20;;;16.10;99.90;;;;;;4984380;28;20045;-34
2023/09/28 07:07:45;;;;;;;7.78;1.70;;;16.10;99.90;;;;;;4981908;28;20968;-34
2023/09/28 07:10:14;;;;;;;7.38;1.98;;;16.20;99.90;;;;;;5000620;28;20072;-35
2023/09/28 07:12:40;;;;;;;11.32;2.00;;;16.20;99.90;;;;;;4984014;28;20144;-34
2023/09/28 07:15:08;;;;;;;13.65;2.20;;;16.30;99.90;;;;;;4987311;28;20093;-34
2023/09/28 07:17:34;;;;;;;8.57;2.17;;;16.30;99.90;;;;;;4985390;28;20046;-34
2023/09/28 07:20:00;;;;;;;11.63;2.45;;;16.40;99.90;;;;;;4983215;28;20049;-34
2023/09/28 07:22:26;;;;;;;11.75;2.83;;;16.40;99.90;;;;;;4986356;28;20513;-34
2023/09/28 07:24:53;;;;;;;10.52;2.45;;;16.50;99.90;;;;;;4984577;28;20042;-34
2023/09/28 07:27:18;;;;;;;8.55;1.88;;;16.60;99.90;;;;;;4981966;28;20053;-34
2023/09/28 07:29:44;;;;;;;11.27;2.78;;;16.70;99.90;;;;;;4983598;28;20420;-34
2023/09/28 07:32:10;;;;;;;10.98;2.45;;;16.80;99.90;;;;;;4983892;28;20046;-35
2023/09/28 07:34:36;;;;;;;12.98;3.10;;;16.90;99.90;;;;;;4985114;28;20579;-35
2023/09/28 07:37:03;;;;;;;10.63;2.58;;;17.00;99.90;;;;;;4984678;28;20504;-34
2023/09/28 07:39:29;;;;;;;11.55;2.53;;;17.10;99.90;;;;;;4981612;28;20670;-34
2023/09/28 07:41:54;;;;;;;11.15;2.58;;;17.20;99.90;;;;;;4987995;28;20049;-35
2023/09/28 07:44:23;;;;;;;15.35;2.90;;;17.10;99.90;;;;;;4986419;28;20054;-34
2023/09/28 07:46:48;;;;;;;13.85;2.58;;;17.20;99.90;;;;;;4983307;28;20050;-34
2023/09/28 07:49:14;;;;;;;10.30;2.78;;;17.20;99.90;;;;;;4981855;28;20051;-34
2023/09/28 07:51:40;;;;;;;13.77;2.83;;;17.20;99.90;;;;;;4983616;28;20105;-35
2023/09/28 07:54:06;;;;;;;8.40;2.40;;;17.30;99.90;;;;;;4983992;28;20046;-34
2023/09/28 07:56:33;;;;;;;11.30;2.53;;;17.30;99.90;;;;;;4977351;28;20065;-34
2023/09/28 07:58:59;;;;;;;12.73;3.15;;;17.40;99.90;;;;;;4982188;28;20890;-34
2023/09/28 08:01:26;;;;;;;9.27;2.20;;;17.40;99.90;;;;;;4986358;28;20062;-34
2023/09/28 08:03:52;;;;;;;13.05;2.40;;;17.40;99.90;;;;;;4982449;28;20058;-34
2023/09/28 08:06:18;;;;;;;8.45;2.53;;;17.40;99.90;;;;;;4989127;28;20046;-35
2023/09/28 08:08:44;;;;;;;11.82;2.13;;;17.40;99.90;;;;;;4984297;28;20406;-34
2023/09/28 08:11:09;;;;;;;13.30;2.58;;;17.40;99.90;;;;;;4988295;28;20505;-34
2023/09/28 08:13:35;;;;;;;13.40;2.08;;;17.50;99.90;;;;;;4990548;28;20050;-35
2023/09/28 08:16:01;;;;;;;10.35;2.00;;;17.50;99.90;;;;;;4988290;28;20058;-35
2023/09/28 08:18:26;;;;;;;15.32;2.85;;;17.50;99.90;;;;;;4984085;28;20485;-35
2023/09/28 08:20:52;;;;;;;30.00;3.63;;;17.60;99.90;;;;;;4986344;28;20069;-35
2023/09/28 08:23:18;;;;;;;13.23;3.15;;;17.60;99.90;;;;;;4990678;28;20096;-34
2023/09/28 08:25:44;;;;;;;13.73;2.75;;;17.60;99.90;;;;;;4989211;28;20054;-34
2023/09/28 08:28:10;;;;;;;11.95;3.20;;;17.60;99.90;;;;;;4987468;28;20050;-35
2023/09/28 08:30:35;;;;;;;12.30;2.60;;;17.60;99.90;;;;;;4982278;28;20125;-35
2023/09/28 08:33:01;;;;;;;13.35;2.10;;;17.60;99.90;;;;;;4983442;28;20051;-35
2023/09/28 08:35:27;;;;;;;14.70;2.35;;;17.60;99.90;;;;;;4986706;28;20467;-34
2023/09/28 08:37:53;;;;;;;15.45;4.00;;;17.70;99.90;;;;;;4986435;28;20061;-35
2023/09/28 08:40:20;;;;;;;10.30;2.65;;;17.70;99.90;;;;;;4979115;28;20096;-35
2023/09/28 08:42:47;;;;;;;10.95;2.20;;;17.80;99.90;;;;;;4988900;28;20070;-34
2023/09/28 08:45:15;;;;;;;15.13;2.97;;;17.80;99.90;;;;;;4985266;28;20050;-35
2023/09/28 08:47:48;;;;;;;12.98;2.10;;;17.90;99.90;;;;;;4986524;28;20588;-35
2023/09/28 08:50:22;;;;;;;14.77;2.40;;;17.90;99.90;;;;;;4986164;28;20558;-35
2023/09/28 08:52:48;;;;;;;15.30;2.53;;;18.00;99.90;;;;;;4986228;28;20388;-34
2023/09/28 08:55:15;;;;;;;18.13;2.55;;;18.00;99.90;;;;;;4982763;28;20061;-34
2023/09/28 08:57:43;;;;;;;13.13;2.35;;;18.00;99.90;;;;;;4990772;28;20455;-35
2023/09/28 09:00:13;;;;;;;12.57;2.08;;;18.10;99.90;;;;;;4987263;28;20050;-35
2023/09/28 09:02:42;;;;;;;20.38;3.13;;;18.10;99.90;;;;;;4987014;28;20074;-35
2023/09/28 09:05:11;;;;;;;14.73;3.03;;;18.20;99.90;;;;;;4988569;28;20050;-35
2023/09/28 09:07:38;;;;;;;16.98;2.42;;;18.20;99.90;;;;;;4990519;28;20137;-35
2023/09/28 09:10:06;;;;;;;14.50;1.90;;;18.20;99.90;;;;;;4985509;28;20114;-35
2023/09/28 09:12:34;;;;;;;17.15;3.13;;;18.30;99.90;;;;;;4986697;28;20070;-35
2023/09/28 09:15:00;;;;;;;19.35;2.50;;;18.30;99.90;;;;;;4983336;28;20074;-35
2023/09/28 09:17:35;;;;;;;13.23;2.15;;;18.30;99.90;;;;;;4987962;28;20054;-34
2023/09/28 09:20:02;;;;;;;15.52;2.25;;;18.30;99.90;;;;;;4988687;28;20113;-35
2023/09/28 09:22:28;;;;;;;15.95;2.20;;;18.40;99.90;;;;;;4985928;28;20049;-35
2023/09/28 09:24:58;;;;;;;13.48;2.92;;;18.30;99.90;;;;;;4982604;28;20054;-34
2023/09/28 09:27:27;;;;;;;14.07;2.45;;;18.40;99.90;;;;;;4984211;28;20042;-35
2023/09/28 09:30:03;;;;;;;16.90;2.28;;;18.40;99.90;;;;;;4981718;28;20054;-35
2023/09/28 09:32:28;;;;;;;19.65;2.50;;;18.30;99.90;;;;;;4985033;28;20097;-35
2023/09/28 09:34:54;;;;;;;12.52;2.55;;;18.40;99.90;;;;;;4981849;28;20046;-34
2023/09/28 09:37:20;;;;;;;14.85;2.78;;;18.40;99.90;;;;;;4988239;28;20464;-35
2023/09/28 09:39:47;;;;;;;13.10;1.98;;;18.50;99.90;;;;;;4985635;28;20055;-35
2023/09/28 09:42:12;;;;;;;10.85;2.05;;;18.60;99.90;;;;;;4988371;28;20065;-35
2023/09/28 09:44:39;;;;;;;15.35;2.78;;;18.50;99.90;;;;;;4982957;28;20500;-35
2023/09/28 09:47:04;;;;;;;11.13;2.40;;;18.60;99.90;;;;;;4979629;28;20524;-35
2023/09/28 09:49:30;;;;;;;11.45;1.92;;;18.60;99.90;;;;;;4984761;28;20065;-36
2023/09/28 09:51:59;;;;;;;19.48;3.40;;;18.70;99.90;;;;;;4985897;28;20508;-35
2023/09/28 09:54:25;;;;;;;12.05;2.13;;;18.60;99.90;;;;;;4983563;28;20054;-35
2023/09/28 09:56:52;;;;;;;16.30;2.63;;;18.70;99.90;;;;;;4986675;28;20054;-36
2023/09/28 09:59:20;;;;;;;11.50;2.55;;;18.70;99.90;;;;;;4985940;28;20061;-35
2023/09/28 10:01:51;;;;;;;12.65;2.50;;;18.70;99.90;;;;;;4987600;28;20496;-35
2023/09/28 10:04:18;;;;;;;12.63;1.70;;;18.70;99.90;;;;;;4982225;28;20501;-35
2023/09/28 10:06:52;;;;;;;13.43;2.45;;;18.70;99.90;;;;;;4985084;28;20058;-35
2023/09/28 10:09:19;;;;;;;14.10;1.90;;;18.80;99.90;;;;;;4984534;28;20424;-35
2023/09/28 10:11:48;;;;;;;14.00;1.52;;;18.90;99.90;;;;;;4984408;28;20124;-33
2023/09/28 10:14:19;;;;;;;15.35;2.33;;;18.90;99.90;;;;;;4982124;28;20509;-35
2023/09/28 10:16:50;;;;;;;14.50;1.50;;;19.00;99.90;;;;;;4983217;28;20346;-35
2023/09/28 10:19:22;;;;;;;10.85;2.17;;;19.10;99.90;;;;;;4985046;28;20068;-35
2023/09/28 10:21:48;;;;;;;16.48;2.65;;;19.20;99.90;;;;;;4981705;28;20093;-35
2023/09/28 10:24:15;;;;;;;13.23;2.50;;;19.20;99.90;;;;;;4983766;28;20504;-36
2023/09/28 10:26:51;;;;;;;16.15;2.97;;;19.30;99.90;;;;;;4981570;28;20054;-34
2023/09/28 10:29:23;;;;;;;16.05;2.88;;;19.40;99.90;;;;;;4981827;28;20119;-35
2023/09/28 10:31:53;;;;;;;13.32;1.92;;;19.50;99.90;;;;;;4986118;28;20109;-36
2023/09/28 10:34:20;;;;;;;12.90;1.73;;;19.60;99.90;;;;;;4981354;28;20085;-35
2023/09/28 10:37:05;;;;;;;13.88;1.58;;;19.60;99.90;;;;;;4984891;28;20082;-34
2023/09/28 10:39:31;;;;;;;20.55;2.50;;;19.70;99.90;;;;;;4978678;28;20059;-35
2023/09/28 10:42:05;;;;;;;12.60;2.40;;;19.70;99.90;;;;;;4987570;28;20632;-35
2023/09/28 10:44:32;;;;;;;14.57;2.05;;;19.70;99.90;;;;;;4983772;28;20189;-35
2023/09/28 10:46:58;;;;;;;15.45;2.28;;;19.60;99.90;;;;;;4983577;28;20188;-35
2023/09/28 10:49:28;;;;;;;16.33;2.50;;;19.50;99.90;;;;;;4982790;28;20516;-35
2023/09/28 10:51:56;;;;;;;15.13;2.47;;;19.40;99.90;;;;;;4965067;28;20134;-35
2023/09/28 10:54:26;;;;;;;12.30;2.03;;;19.30;99.90;;;;;;4985967;28;20061;-35
2023/09/28 10:56:53;;;;;;;9.00;1.52;;;19.30;99.90;;;;;;4982837;28;20476;-35
2023/09/28 10:59:19;;;;;;;14.68;1.77;;;19.30;99.90;;;;;;4997420;28;20507;-35
2023/09/28 11:01:46;;;;;;;13.43;2.60;;;19.40;99.90;;;;;;4984783;28;20058;-35
2023/09/28 11:04:13;;;;;;;12.43;2.28;;;19.40;99.90;;;;;;4980562;28;20496;-35
2023/09/28 11:06:42;;;;;;;10.35;2.08;;;19.30;99.90;;;;;;4981921;28;20061;-35
2023/09/28 11:09:09;;;;;;;12.98;1.92;;;19.30;99.90;;;;;;4983419;28;20054;-35
2023/09/28 11:11:35;;;;;;;16.00;3.17;;;19.30;99.90;;;;;;4987527;28;20108;-35
2023/09/28 11:14:01;;;;;;;11.85;1.95;;;19.30;99.90;;;;;;4984373;28;20058;-35
2023/09/28 11:16:27;;;;;;;16.63;2.22;;;19.30;99.90;;;;;;4985096;28;20101;-35
2023/09/28 11:18:54;;;;;;;13.15;2.10;;;19.40;99.90;;;;;;4999222;28;20054;-35
2023/09/28 11:21:21;;;;;;;14.68;2.00;;;19.40;99.90;;;;;;4980855;28;20054;-35
2023/09/28 11:23:49;;;;;;;11.57;1.77;;;19.40;99.90;;;;;;4979526;28;20157;-34
2023/09/28 11:26:15;;;;;;;15.20;2.30;;;19.40;99.90;;;;;;4982467;28;20416;-34
2023/09/28 11:28:42;;;;;;;13.18;2.15;;;19.40;99.90;;;;;;4983809;28;20050;-34
2023/09/28 11:31:12;;;;;;;12.48;2.42;;;19.50;99.90;;;;;;4982630;28;20516;-35
2023/09/28 11:33:43;;;;;;;14.27;2.45;;;19.50;99.90;;;;;;4977345;28;20104;-34
2023/09/28 11:36:14;;;;;;;12.43;1.95;;;19.50;99.90;;;;;;4980121;28;20054;-34
2023/09/28 11:38:40;;;;;;;12.52;2.00;;;19.50;99.90;;;;;;4982065;28;20058;-34
2023/09/28 11:41:06;;;;;;;11.32;2.35;;;19.50;99.90;;;;;;4985399;28;20153;-34
2023/09/28 11:43:49;;;;;;;14.70;2.30;;;19.50;99.90;;;;;;4985640;28;20545;-35
2023/09/28 11:46:25;;;;;;;15.35;2.28;;;19.50;99.90;;;;;;4985754;28;20081;-34
2023/09/28 11:49:04;;;;;;;13.32;1.95;;;19.60;99.90;;;;;;4984434;28;20050;-34
2023/09/28 11:51:34;;;;;;;16.15;2.53;;;19.60;99.90;;;;;;4985909;28;20493;-34
2023/09/28 11:54:11;;;;;;;10.45;2.05;;;19.50;99.90;;;;;;5003683;28;20078;-34
2023/09/28 11:56:39;;;;;;;11.77;1.95;;;19.50;99.90;;;;;;4985444;28;20661;-34
2023/09/28 11:59:06;;;;;;;11.88;2.10;;;19.60;99.90;;;;;;4988226;28;20050;-34
2023/09/28 12:01:31;;;;;;;12.43;2.75;;;19.60;99.90;;;;;;4989280;28;20046;-34
2023/09/28 12:03:59;;;;;;;12.52;2.47;;;19.70;99.90;;;;;;4988852;28;20127;-34
2023/09/28 12:06:25;;;;;;;15.30;2.10;;;19.70;99.90;;;;;;4984103;28;20069;-34
2023/09/28 12:08:51;;;;;;;11.05;2.35;;;19.80;99.90;;;;;;4982936;28;20062;-34
2023/09/28 12:11:17;;;;;;;13.48;2.15;;;19.90;99.90;;;;;;4982951;28;20050;-34
2023/09/28 12:13:42;;;;;;;13.70;2.53;;;19.90;99.90;;;;;;4982169;28;20054;-34
2023/09/28 12:16:08;;;;;;;11.13;1.73;;;19.90;99.90;;;;;;4987383;28;20057;-35
2023/09/28 12:18:34;;;;;;;11.38;1.58;;;19.90;99.90;;;;;;4977368;28;20796;-35
2023/09/28 12:21:00;;;;;;;12.43;2.60;;;19.90;99.90;;;;;;4988213;28;20523;-35
2023/09/28 12:23:26;;;;;;;10.55;2.38;;;19.90;99.90;;;;;;4986384;28;20531;-34
2023/09/28 12:25:52;;;;;;;10.43;2.00;;;19.80;99.90;;;;;;4987806;28;20054;-34
2023/09/28 12:28:18;;;;;;;17.67;2.28;;;19.80;99.90;;;;;;4988323;28;20142;-34
2023/09/28 12:30:44;;;;;;;8.15;1.88;;;19.70;99.90;;;;;;4980129;28;20065;-34
2023/09/28 12:33:10;;;;;;;8.75;2.03;;;19.70;99.90;;;;;;4985266;28;20422;-34
2023/09/28 12:35:39;;;;;;;14.93;2.30;;;19.80;99.90;;;;;;4984664;28;20054;-34
2023/09/28 12:38:08;;;;;;;8.18;1.70;;;19.80;99.90;;;;;;4989077;28;20504;-34
2023/09/28 12:40:35;;;;;;;13.07;2.38;;;19.80;99.90;;;;;;4980487;28;20058;-34
2023/09/28 12:43:04;;;;;;;9.80;1.73;;;19.80;99.90;;;;;;4983605;28;20070;-35